createdAt,value
2017-08-28T14:04:54.904Z,264
2017-08-28T14:07:20.550Z,253
2017-08-28T14:26:01.913Z,146
2017-08-28T14:31:27.437Z,208
2017-08-28T14:32:32.705Z,236
2017-08-28T14:35:01.079Z,213
2017-08-28T14:38:18.040Z,213
2017-08-28T14:39:31.805Z,208
2017-08-28T14:43:00.495Z,213
2017-08-28T14:44:07.226Z,219
2017-08-28T14:45:14.635Z,219
2017-08-28T14:47:12.678Z,213
2017-08-28T14:48:25.065Z,213
2017-08-28T14:50:28.427Z,219
2017-08-28T14:52:21.416Z,213
2017-08-28T14:53:42.766Z,202
2017-08-28T14:54:50.077Z,196
2017-08-28T14:55:53.514Z,196
2017-08-28T14:57:12.456Z,202
2017-08-28T15:02:15.310Z,202
2017-08-28T15:05:13.769Z,202
2017-08-28T15:23:50.719Z,191
2017-08-28T15:26:23.901Z,191
2017-08-28T15:27:27.288Z,185
2017-08-28T15:28:32.342Z,185
2017-08-28T15:30:23.897Z,180
2017-08-28T15:31:26.632Z,180
2017-08-28T15:32:29.224Z,185
2017-08-28T15:33:31.532Z,180
2017-08-28T15:34:34.199Z,174
2017-08-28T15:35:36.561Z,174
2017-08-28T15:36:41.749Z,174
2017-08-28T15:37:43.855Z,174
2017-08-28T15:38:45.999Z,174
2017-08-28T15:39:49.641Z,174
2017-08-28T15:41:19.323Z,174
2017-08-28T15:43:44.141Z,163
2017-08-28T15:46:17.393Z,157
2017-08-28T15:47:33.239Z,157
2017-08-28T15:48:57.350Z,157
2017-08-28T15:50:01.598Z,151
2017-08-28T15:51:10.222Z,151
2017-08-28T15:52:28.782Z,151
2017-08-28T15:53:47.993Z,151
2017-08-28T15:55:40.338Z,151
2017-08-28T15:57:04.552Z,146
2017-08-28T15:58:25.656Z,140
2017-08-28T16:00:16.082Z,140
2017-08-28T16:03:03.015Z,123
2017-08-28T16:04:11.362Z,118
2017-08-28T16:07:56.608Z,106
2017-08-28T16:09:09.400Z,101
2017-08-28T16:10:14.024Z,95
2017-08-28T16:11:25.367Z,90
2017-08-28T16:12:31.289Z,84
2017-08-28T16:13:46.691Z,84
